sensor_id;sensor_type;location;lat;lon;timestamp;pressure;altitude;pressure_sealevel;temperature
60731;BMP280;46580;52.114;11.674;2023-02-28T00:00:16;102609.03;;;1.47
60731;BMP280;46580;52.114;11.674;2023-02-28T00:02:43;102617.31;;;1.62
60731;BMP280;46580;52.114;11.674;2023-02-28T00:05:10;102611.44;;;1.60
60731;BMP280;46580;52.114;11.674;2023-02-28T00:07:36;102618.06;;;1.73
60731;BMP280;46580;52.114;11.674;2023-02-28T00:10:05;102610.38;;;1.77
60731;BMP280;46580;52.114;11.674;2023-02-28T00:12:32;102621.47;;;1.70
60731;BMP280;46580;52.114;11.674;2023-02-28T00:14:57;102618.16;;;1.63
60731;BMP280;46580;52.114;11.674;2023-02-28T00:17:25;102619.91;;;1.61
60731;BMP280;46580;52.114;11.674;2023-02-28T00:19:51;102613.97;;;1.62
60731;BMP280;46580;52.114;11.674;2023-02-28T00:22:18;102616.69;;;1.43
60731;BMP280;46580;52.114;11.674;2023-02-28T00:24:45;102618.44;;;1.35
60731;BMP280;46580;52.114;11.674;2023-02-28T00:27:11;102611.78;;;1.27
60731;BMP280;46580;52.114;11.674;2023-02-28T00:29:37;102614.25;;;1.34
60731;BMP280;46580;52.114;11.674;2023-02-28T00:32:03;102616.88;;;1.27
60731;BMP280;46580;52.114;11.674;2023-02-28T00:34:28;102616.88;;;1.25
60731;BMP280;46580;52.114;11.674;2023-02-28T00:36:54;102617.72;;;1.24
60731;BMP280;46580;52.114;11.674;2023-02-28T00:39:20;102610.06;;;1.30
60731;BMP280;46580;52.114;11.674;2023-02-28T00:41:45;102604.06;;;1.37
60731;BMP280;46580;52.114;11.674;2023-02-28T00:44:11;102609.25;;;1.25
60731;BMP280;46580;52.114;11.674;2023-02-28T00:46:37;102611.84;;;1.19
60731;BMP280;46580;52.114;11.674;2023-02-28T00:49:02;102605.97;;;1.16
60731;BMP280;46580;52.114;11.674;2023-02-28T00:51:27;102608.53;;;1.14
60731;BMP280;46580;52.114;11.674;2023-02-28T00:53:53;102607.63;;;1.18
60731;BMP280;46580;52.114;11.674;2023-02-28T00:56:19;102604.19;;;1.25
60731;BMP280;46580;52.114;11.674;2023-02-28T00:58:45;102601.59;;;1.28
60731;BMP280;46580;52.114;11.674;2023-02-28T01:01:11;102599.00;;;1.35
60731;BMP280;46580;52.114;11.674;2023-02-28T01:03:36;102608.03;;;1.61
60731;BMP280;46580;52.114;11.674;2023-02-28T01:06:03;102609.66;;;1.68
60731;BMP280;46580;52.114;11.674;2023-02-28T01:08:29;102606.44;;;1.54
60731;BMP280;46580;52.114;11.674;2023-02-28T01:10:54;102608.22;;;1.45
60731;BMP280;46580;52.114;11.674;2023-02-28T01:13:21;102604.06;;;1.35
60731;BMP280;46580;52.114;11.674;2023-02-28T01:15:52;102610.03;;;1.31
60731;BMP280;46580;52.114;11.674;2023-02-28T01:18:18;102605.81;;;1.33
60731;BMP280;46580;52.114;11.674;2023-02-28T01:20:45;102603.22;;;1.36
60731;BMP280;46580;52.114;11.674;2023-02-28T01:23:11;102602.34;;;1.39
60731;BMP280;46580;52.114;11.674;2023-02-28T01:25:37;102596.44;;;1.40
60731;BMP280;46580;52.114;11.674;2023-02-28T01:28:03;102599.81;;;1.37
60731;BMP280;46580;52.114;11.674;2023-02-28T01:30:29;102590.59;;;1.32
60731;BMP280;46580;52.114;11.674;2023-02-28T01:32:54;102591.44;;;1.29
60731;BMP280;46580;52.114;11.674;2023-02-28T01:35:21;102591.44;;;1.32
60731;BMP280;46580;52.114;11.674;2023-02-28T01:37:47;102587.00;;;1.50
60731;BMP280;46580;52.114;11.674;2023-02-28T01:40:13;102579.47;;;1.43
60731;BMP280;46580;52.114;11.674;2023-02-28T01:42:38;102586.22;;;1.47
60731;BMP280;46580;52.114;11.674;2023-02-28T01:47:36;102584.13;;;1.78
60731;BMP280;46580;52.114;11.674;2023-02-28T01:50:06;102578.44;;;1.60
60731;BMP280;46580;52.114;11.674;2023-02-28T01:52:34;102583.63;;;1.50
60731;BMP280;46580;52.114;11.674;2023-02-28T01:55:02;102583.75;;;1.40
60731;BMP280;46580;52.114;11.674;2023-02-28T01:57:32;102588.03;;;1.33
60731;BMP280;46580;52.114;11.674;2023-02-28T02:00:23;102569.44;;;1.31
60731;BMP280;46580;52.114;11.674;2023-02-28T02:02:53;102578.69;;;1.40
60731;BMP280;46580;52.114;11.674;2023-02-28T02:05:24;102571.06;;;1.41
60731;BMP280;46580;52.114;11.674;2023-02-28T02:07:54;102577.00;;;1.37
60731;BMP280;46580;52.114;11.674;2023-02-28T02:10:24;102586.34;;;1.34
60731;BMP280;46580;52.114;11.674;2023-02-28T02:15:44;102572.69;;;1.47
60731;BMP280;46580;52.114;11.674;2023-02-28T02:21:37;102576.22;;;1.29
60731;BMP280;46580;52.114;11.674;2023-02-28T02:24:14;102572.06;;;1.27
60731;BMP280;46580;52.114;11.674;2023-02-28T02:35:00;102576.28;;;1.27
60731;BMP280;46580;52.114;11.674;2023-02-28T02:37:50;102575.31;;;1.38
60731;BMP280;46580;52.114;11.674;2023-02-28T02:40:20;102582.22;;;1.24
60731;BMP280;46580;52.114;11.674;2023-02-28T02:42:53;102579.66;;;1.24
60731;BMP280;46580;52.114;11.674;2023-02-28T02:45:45;102577.91;;;1.32
60731;BMP280;46580;52.114;11.674;2023-02-28T02:48:16;102575.31;;;1.38
60731;BMP280;46580;52.114;11.674;2023-02-28T02:50:48;102580.34;;;1.41
60731;BMP280;46580;52.114;11.674;2023-02-28T02:53:18;102577.84;;;1.35
60731;BMP280;46580;52.114;11.674;2023-02-28T02:55:46;102577.06;;;1.33
60731;BMP280;46580;52.114;11.674;2023-02-28T02:58:15;102587.13;;;1.39
60731;BMP280;46580;52.114;11.674;2023-02-28T03:00:45;102577.81;;;1.41
60731;BMP280;46580;52.114;11.674;2023-02-28T03:03:13;102577.06;;;1.33
60731;BMP280;46580;52.114;11.674;2023-02-28T03:05:44;102579.66;;;1.26
60731;BMP280;46580;52.114;11.674;2023-02-28T03:08:13;102577.19;;;1.18
60731;BMP280;46580;52.114;11.674;2023-02-28T03:10:46;102586.38;;;1.28
60731;BMP280;46580;52.114;11.674;2023-02-28T03:16:24;102584.44;;;1.52
60731;BMP280;46580;52.114;11.674;2023-02-28T03:19:11;102580.81;;;1.75
60731;BMP280;46580;52.114;11.674;2023-02-28T03:24:49;102578.38;;;1.63
60731;BMP280;46580;52.114;11.674;2023-02-28T03:30:06;102586.09;;;1.56
60731;BMP280;46580;52.114;11.674;2023-02-28T03:35:16;102593.78;;;1.48
60731;BMP280;46580;52.114;11.674;2023-02-28T03:37:48;102587.19;;;1.33
60731;BMP280;46580;52.114;11.674;2023-02-28T03:40:25;102590.69;;;1.22
60731;BMP280;46580;52.114;11.674;2023-02-28T03:42:59;102597.56;;;1.11
60731;BMP280;46580;52.114;11.674;2023-02-28T03:45:29;102605.22;;;1.07
60731;BMP280;46580;52.114;11.674;2023-02-28T03:48:02;102598.53;;;0.97
60731;BMP280;46580;52.114;11.674;2023-02-28T03:50:42;102590.97;;;0.91
60731;BMP280;46580;52.114;11.674;2023-02-28T03:53:14;102596.00;;;0.97
60731;BMP280;46580;52.114;11.674;2023-02-28T03:55:45;102590.19;;;0.86
60731;BMP280;46580;52.114;11.674;2023-02-28T03:58:22;102592.78;;;0.77
60731;BMP280;46580;52.114;11.674;2023-02-28T04:01:03;102595.31;;;0.79
60731;BMP280;46580;52.114;11.674;2023-02-28T04:03:36;102599.25;;;1.13
60731;BMP280;46580;52.114;11.674;2023-02-28T04:06:03;102594.81;;;1.34
60731;BMP280;46580;52.114;11.674;2023-02-28T04:08:29;102599.09;;;1.27
60731;BMP280;46580;52.114;11.674;2023-02-28T04:11:11;102597.63;;;1.02
60731;BMP280;46580;52.114;11.674;2023-02-28T04:13:38;102596.69;;;1.13
60731;BMP280;46580;52.114;11.674;2023-02-28T04:16:08;102599.19;;;1.19
60731;BMP280;46580;52.114;11.674;2023-02-28T04:18:40;102599.31;;;1.02
60731;BMP280;46580;52.114;11.674;2023-02-28T04:21:08;102586.81;;;0.86
60731;BMP280;46580;52.114;11.674;2023-02-28T04:23:33;102595.31;;;0.74
60731;BMP280;46580;52.114;11.674;2023-02-28T04:26:00;102592.84;;;0.72
60731;BMP280;46580;52.114;11.674;2023-02-28T04:28:25;102591.16;;;0.71
60731;BMP280;46580;52.114;11.674;2023-02-28T04:30:57;102596.22;;;0.69
60731;BMP280;46580;52.114;11.674;2023-02-28T04:33:23;102595.44;;;0.61
60731;BMP280;46580;52.114;11.674;2023-02-28T04:36:01;102602.13;;;0.68
60731;BMP280;46580;52.114;11.674;2023-02-28T04:38:30;102601.13;;;0.88
60731;BMP280;46580;52.114;11.674;2023-02-28T04:40:58;102605.41;;;0.86
60731;BMP280;46580;52.114;11.674;2023-02-28T04:43:25;102611.38;;;0.79
60731;BMP280;46580;52.114;11.674;2023-02-28T04:45:50;102606.31;;;0.75
60731;BMP280;46580;52.114;11.674;2023-02-28T04:48:16;102603.75;;;0.81
60731;BMP280;46580;52.114;11.674;2023-02-28T04:50:43;102605.44;;;0.79
60731;BMP280;46580;52.114;11.674;2023-02-28T04:53:09;102601.16;;;0.85
60731;BMP280;46580;52.114;11.674;2023-02-28T04:55:35;102599.50;;;0.84
60731;BMP280;46580;52.114;11.674;2023-02-28T04:58:01;102608.03;;;0.69
60731;BMP280;46580;52.114;11.674;2023-02-28T05:00:27;102592.94;;;0.60
60731;BMP280;46580;52.114;11.674;2023-02-28T05:02:53;102597.22;;;0.52
60731;BMP280;46580;52.114;11.674;2023-02-28T05:05:18;102598.06;;;0.48
60731;BMP280;46580;52.114;11.674;2023-02-28T05:07:44;102601.31;;;0.65
60731;BMP280;46580;52.114;11.674;2023-02-28T05:10:11;102603.13;;;0.53
60731;BMP280;46580;52.114;11.674;2023-02-28T05:12:37;102608.94;;;0.62
60731;BMP280;46580;52.114;11.674;2023-02-28T05:15:04;102611.38;;;0.79
60731;BMP280;46580;52.114;11.674;2023-02-28T05:17:30;102602.22;;;0.58
60731;BMP280;46580;52.114;11.674;2023-02-28T05:19:57;102619.16;;;0.47
60731;BMP280;46580;52.114;11.674;2023-02-28T05:22:23;102622.50;;;0.55
60731;BMP280;46580;52.114;11.674;2023-02-28T05:24:49;102615.81;;;0.45
60731;BMP280;46580;52.114;11.674;2023-02-28T05:27:15;102620.94;;;0.35
60731;BMP280;46580;52.114;11.674;2023-02-28T05:29:43;102621.75;;;0.44
60731;BMP280;46580;52.114;11.674;2023-02-28T05:32:12;102623.34;;;0.54
60731;BMP280;46580;52.114;11.674;2023-02-28T05:34:39;102624.28;;;0.41
60731;BMP280;46580;52.114;11.674;2023-02-28T05:37:05;102620.09;;;0.35
60731;BMP280;46580;52.114;11.674;2023-02-28T05:39:32;102629.28;;;0.50
60731;BMP280;46580;52.114;11.674;2023-02-28T05:41:59;102622.53;;;0.54
60731;BMP280;46580;52.114;11.674;2023-02-28T05:44:25;102629.25;;;0.55
60731;BMP280;46580;52.114;11.674;2023-02-28T05:46:51;102633.47;;;0.60
60731;BMP280;46580;52.114;11.674;2023-02-28T05:49:17;102633.59;;;0.39
60731;BMP280;46580;52.114;11.674;2023-02-28T05:51:43;102634.53;;;0.25
60731;BMP280;46580;52.114;11.674;2023-02-28T05:54:09;102638.75;;;0.22
60731;BMP280;46580;52.114;11.674;2023-02-28T05:56:35;102635.41;;;0.18
60731;BMP280;46580;52.114;11.674;2023-02-28T05:59:02;102629.50;;;0.14
60731;BMP280;46580;52.114;11.674;2023-02-28T06:01:36;102638.81;;;0.10
60731;BMP280;46580;52.114;11.674;2023-02-28T06:04:03;102644.72;;;0.08
60731;BMP280;46580;52.114;11.674;2023-02-28T06:06:29;102647.25;;;0.09
60731;BMP280;46580;52.114;11.674;2023-02-28T06:08:55;102656.56;;;0.03
60731;BMP280;46580;52.114;11.674;2023-02-28T06:11:21;102650.69;;;-0.00
60731;BMP280;46580;52.114;11.674;2023-02-28T06:13:58;102649.84;;;-0.07
60731;BMP280;46580;52.114;11.674;2023-02-28T06:16:28;102657.44;;;-0.07
60731;BMP280;46580;52.114;11.674;2023-02-28T06:18:54;102658.28;;;-0.11
60731;BMP280;46580;52.114;11.674;2023-02-28T06:21:21;102662.50;;;-0.10
60731;BMP280;46580;52.114;11.674;2023-02-28T06:23:47;102662.53;;;-0.14
60731;BMP280;46580;52.114;11.674;2023-02-28T06:26:13;102664.22;;;-0.16
60731;BMP280;46580;52.114;11.674;2023-02-28T06:28:39;102663.34;;;-0.08
60731;BMP280;46580;52.114;11.674;2023-02-28T06:31:10;102659.88;;;0.15
60731;BMP280;46580;52.114;11.674;2023-02-28T06:33:37;102674.25;;;0.07
60731;BMP280;46580;52.114;11.674;2023-02-28T06:36:03;102671.69;;;0.16
60731;BMP280;46580;52.114;11.674;2023-02-28T06:38:29;102673.41;;;0.10
60731;BMP280;46580;52.114;11.674;2023-02-28T06:40:56;102674.16;;;0.34
60731;BMP280;46580;52.114;11.674;2023-02-28T06:43:23;102674.13;;;0.37
60731;BMP280;46580;52.114;11.674;2023-02-28T06:45:49;102676.72;;;0.20
60731;BMP280;46580;52.114;11.674;2023-02-28T06:48:17;102677.63;;;0.12
60731;BMP280;46580;52.114;11.674;2023-02-28T06:50:44;102678.44;;;0.14
60731;BMP280;46580;52.114;11.674;2023-02-28T06:53:11;102676.69;;;0.29
60731;BMP280;46580;52.114;11.674;2023-02-28T06:55:39;102688.44;;;0.43
60731;BMP280;46580;52.114;11.674;2023-02-28T06:58:05;102685.03;;;0.52
60731;BMP280;46580;52.114;11.674;2023-02-28T07:00:51;102679.13;;;0.48
60731;BMP280;46580;52.114;11.674;2023-02-28T07:03:17;102680.88;;;0.37
60731;BMP280;46580;52.114;11.674;2023-02-28T07:05:43;102679.22;;;0.34
60731;BMP280;46580;52.114;11.674;2023-02-28T07:08:09;102690.13;;;0.43
60731;BMP280;46580;52.114;11.674;2023-02-28T07:10:37;102688.41;;;0.54
60731;BMP280;46580;52.114;11.674;2023-02-28T07:13:04;102689.13;;;0.69
60731;BMP280;46580;52.114;11.674;2023-02-28T07:15:31;102694.16;;;0.77
60731;BMP280;46580;52.114;11.674;2023-02-28T07:17:57;102700.88;;;0.81
60731;BMP280;46580;52.114;11.674;2023-02-28T07:20:23;102700.88;;;0.84
60731;BMP280;46580;52.114;11.674;2023-02-28T07:22:50;102695.00;;;0.79
60731;BMP280;46580;52.114;11.674;2023-02-28T07:25:22;102702.59;;;0.79
60731;BMP280;46580;52.114;11.674;2023-02-28T07:27:48;102709.28;;;0.92
60731;BMP280;46580;52.114;11.674;2023-02-28T07:30:13;102700.94;;;0.75
60731;BMP280;46580;52.114;11.674;2023-02-28T07:32:40;102701.75;;;0.76
60731;BMP280;46580;52.114;11.674;2023-02-28T07:35:05;102698.31;;;0.89
60731;BMP280;46580;52.114;11.674;2023-02-28T07:37:31;102707.59;;;0.91
60731;BMP280;46580;52.114;11.674;2023-02-28T07:40:03;102714.25;;;1.02
60731;BMP280;46580;52.114;11.674;2023-02-28T07:42:31;102710.81;;;1.12
60731;BMP280;46580;52.114;11.674;2023-02-28T07:44:57;102714.19;;;1.14
60731;BMP280;46580;52.114;11.674;2023-02-28T07:47:22;102708.19;;;1.27
60731;BMP280;46580;52.114;11.674;2023-02-28T07:49:49;102712.25;;;1.47
60731;BMP280;46580;52.114;11.674;2023-02-28T07:52:15;102708.88;;;1.43
60731;BMP280;46580;52.114;11.674;2023-02-28T07:54:41;102713.09;;;1.44
60731;BMP280;46580;52.114;11.674;2023-02-28T07:57:06;102711.94;;;1.77
60731;BMP280;46580;52.114;11.674;2023-02-28T07:59:31;102712.63;;;1.94
60731;BMP280;46580;52.114;11.674;2023-02-28T08:01:57;102711.69;;;2.01
60731;BMP280;46580;52.114;11.674;2023-02-28T08:04:23;102713.44;;;1.94
60731;BMP280;46580;52.114;11.674;2023-02-28T08:06:49;102717.72;;;1.91
60731;BMP280;46580;52.114;11.674;2023-02-28T08:09:17;102715.00;;;2.07
60731;BMP280;46580;52.114;11.674;2023-02-28T08:11:43;102709.19;;;1.96
60731;BMP280;46580;52.114;11.674;2023-02-28T08:14:09;102717.56;;;2.03
60731;BMP280;46580;52.114;11.674;2023-02-28T08:16:34;102707.41;;;2.04
60731;BMP280;46580;52.114;11.674;2023-02-28T08:19:02;102709.88;;;2.10
60731;BMP280;46580;52.114;11.674;2023-02-28T08:21:29;102718.94;;;2.31
60731;BMP280;46580;52.114;11.674;2023-02-28T08:23:55;102705.13;;;2.51
60731;BMP280;46580;52.114;11.674;2023-02-28T08:26:22;102710.75;;;2.75
60731;BMP280;46580;52.114;11.674;2023-02-28T08:28:49;102711.72;;;2.65
60731;BMP280;46580;52.114;11.674;2023-02-28T08:31:16;102712.75;;;2.50
60731;BMP280;46580;52.114;11.674;2023-02-28T08:33:42;102709.13;;;2.68
60731;BMP280;46580;52.114;11.674;2023-02-28T08:36:10;102721.84;;;2.68
60731;BMP280;46580;52.114;11.674;2023-02-28T08:38:36;102722.63;;;2.73
60731;BMP280;46580;52.114;11.674;2023-02-28T08:41:05;102719.13;;;2.80
60731;BMP280;46580;52.114;11.674;2023-02-28T08:43:33;102721.28;;;3.05
60731;BMP280;46580;52.114;11.674;2023-02-28T08:45:59;102713.47;;;3.18
60731;BMP280;46580;52.114;11.674;2023-02-28T08:48:27;102714.50;;;3.07
60731;BMP280;46580;52.114;11.674;2023-02-28T08:53:27;102716.81;;;3.20
60731;BMP280;46580;52.114;11.674;2023-02-28T08:56:00;102713.19;;;3.35
60731;BMP280;46580;52.114;11.674;2023-02-28T08:58:25;102712.88;;;3.53
60731;BMP280;46580;52.114;11.674;2023-02-28T09:00:52;102713.47;;;3.67
60731;BMP280;46580;52.114;11.674;2023-02-28T09:03:17;102717.09;;;3.55
60731;BMP280;46580;52.114;11.674;2023-02-28T09:05:56;102718.47;;;3.71
60731;BMP280;46580;52.114;11.674;2023-02-28T09:08:23;102710.44;;;3.93
60731;BMP280;46580;52.114;11.674;2023-02-28T09:10:49;102703.59;;;4.38
60731;BMP280;46580;52.114;11.674;2023-02-28T09:13:15;102703.00;;;4.26
60731;BMP280;46580;52.114;11.674;2023-02-28T09:15:41;102703.03;;;4.24
60731;BMP280;46580;52.114;11.674;2023-02-28T09:18:07;102704.81;;;4.19
60731;BMP280;46580;52.114;11.674;2023-02-28T09:20:33;102701.66;;;4.08
60731;BMP280;46580;52.114;11.674;2023-02-28T09:22:59;102714.31;;;4.11
60731;BMP280;46580;52.114;11.674;2023-02-28T09:25:25;102699.97;;;4.47
60731;BMP280;46580;52.114;11.674;2023-02-28T09:27:50;102707.19;;;4.68
60731;BMP280;46580;52.114;11.674;2023-02-28T09:30:17;102714.09;;;4.63
60731;BMP280;46580;52.114;11.674;2023-02-28T09:32:42;102701.06;;;4.75
60731;BMP280;46580;52.114;11.674;2023-02-28T09:35:19;102714.38;;;4.88
60731;BMP280;46580;52.114;11.674;2023-02-28T09:37:48;102706.78;;;4.85
60731;BMP280;46580;52.114;11.674;2023-02-28T09:40:20;102707.38;;;4.98
60731;BMP280;46580;52.114;11.674;2023-02-28T09:42:48;102702.19;;;4.99
60731;BMP280;46580;52.114;11.674;2023-02-28T09:45:26;102715.84;;;4.98
60731;BMP280;46580;52.114;11.674;2023-02-28T09:47:56;102707.03;;;5.11
60731;BMP280;46580;52.114;11.674;2023-02-28T09:50:45;102713.06;;;5.08
60731;BMP280;46580;52.114;11.674;2023-02-28T09:53:22;102709.53;;;5.12
60731;BMP280;46580;52.114;11.674;2023-02-28T09:55:55;102701.59;;;5.25
60731;BMP280;46580;52.114;11.674;2023-02-28T09:58:30;102707.94;;;5.42
60731;BMP280;46580;52.114;11.674;2023-02-28T10:01:24;102712.69;;;5.23
60731;BMP280;46580;52.114;11.674;2023-02-28T10:03:59;102714.75;;;5.08
60731;BMP280;46580;52.114;11.674;2023-02-28T10:06:29;102717.59;;;4.96
60731;BMP280;46580;52.114;11.674;2023-02-28T10:09:17;102716.63;;;5.00
60731;BMP280;46580;52.114;11.674;2023-02-28T10:11:46;102714.97;;;4.99
60731;BMP280;46580;52.114;11.674;2023-02-28T10:14:12;102718.69;;;5.22
60731;BMP280;46580;52.114;11.674;2023-02-28T10:17:10;102717.63;;;5.30
60731;BMP280;46580;52.114;11.674;2023-02-28T10:20:02;102716.91;;;5.25
60731;BMP280;46580;52.114;11.674;2023-02-28T10:22:51;102714.41;;;5.22
60731;BMP280;46580;52.114;11.674;2023-02-28T10:25:28;102720.88;;;5.37
60731;BMP280;46580;52.114;11.674;2023-02-28T10:27:57;102716.25;;;5.52
60731;BMP280;46580;52.114;11.674;2023-02-28T10:30:24;102709.44;;;5.51
60731;BMP280;46580;52.114;11.674;2023-02-28T10:32:51;102713.44;;;5.60
60731;BMP280;46580;52.114;11.674;2023-02-28T10:35:24;102703.53;;;5.81
60731;BMP280;46580;52.114;11.674;2023-02-28T10:37:53;102707.75;;;5.84
60731;BMP280;46580;52.114;11.674;2023-02-28T10:43:02;102711.03;;;5.55
60731;BMP280;46580;52.114;11.674;2023-02-28T10:45:30;102707.13;;;5.75
60731;BMP280;46580;52.114;11.674;2023-02-28T10:50:51;102704.94;;;5.60
60731;BMP280;46580;52.114;11.674;2023-02-28T10:58:24;102693.59;;;6.02
60731;BMP280;46580;52.114;11.674;2023-02-28T11:00:52;102691.38;;;6.20
60731;BMP280;46580;52.114;11.674;2023-02-28T11:03:38;102689.16;;;5.79
60731;BMP280;46580;52.114;11.674;2023-02-28T11:06:08;102699.03;;;5.91
60731;BMP280;46580;52.114;11.674;2023-02-28T11:08:53;102688.81;;;5.91
60731;BMP280;46580;52.114;11.674;2023-02-28T11:11:20;102682.56;;;6.00
60731;BMP280;46580;52.114;11.674;2023-02-28T11:13:50;102677.53;;;6.27
60731;BMP280;46580;52.114;11.674;2023-02-28T11:16:18;102686.22;;;6.22
60731;BMP280;46580;52.114;11.674;2023-02-28T11:18:51;102681.44;;;6.10
60731;BMP280;46580;52.114;11.674;2023-02-28T11:21:24;102683.47;;;6.28
60731;BMP280;46580;52.114;11.674;2023-02-28T11:23:52;102692.09;;;5.95
60731;BMP280;46580;52.114;11.674;2023-02-28T11:26:47;102679.25;;;5.98
60731;BMP280;46580;52.114;11.674;2023-02-28T11:29:25;102674.66;;;6.09
60731;BMP280;46580;52.114;11.674;2023-02-28T11:32:19;102672.22;;;6.05
60731;BMP280;46580;52.114;11.674;2023-02-28T11:34:46;102666.09;;;6.10
60731;BMP280;46580;52.114;11.674;2023-02-28T11:37:18;102667.38;;;6.26
60731;BMP280;46580;52.114;11.674;2023-02-28T11:39:45;102662.03;;;6.03
60731;BMP280;46580;52.114;11.674;2023-02-28T11:42:50;102656.84;;;6.34
60731;BMP280;46580;52.114;11.674;2023-02-28T11:45:49;102661.22;;;6.31
60731;BMP280;46580;52.114;11.674;2023-02-28T11:48:47;102659.41;;;6.63
60731;BMP280;46580;52.114;11.674;2023-02-28T11:51:24;102655.31;;;6.84
60731;BMP280;46580;52.114;11.674;2023-02-28T11:56:31;102655.28;;;6.86
60731;BMP280;46580;52.114;11.674;2023-02-28T12:05:16;102655.78;;;6.41
60731;BMP280;46580;52.114;11.674;2023-02-28T12:10:28;102647.41;;;6.65
60731;BMP280;46580;52.114;11.674;2023-02-28T12:13:03;102641.28;;;6.68
60731;BMP280;46580;52.114;11.674;2023-02-28T12:18:33;102645.09;;;7.09
60731;BMP280;46580;52.114;11.674;2023-02-28T12:21:14;102635.34;;;7.20
60731;BMP280;46580;52.114;11.674;2023-02-28T12:23:49;102634.31;;;7.25
60731;BMP280;46580;52.114;11.674;2023-02-28T12:26:42;102636.41;;;6.88
60731;BMP280;46580;52.114;11.674;2023-02-28T12:29:28;102627.28;;;7.06
60731;BMP280;46580;52.114;11.674;2023-02-28T12:32:12;102623.66;;;6.87
60731;BMP280;46580;52.114;11.674;2023-02-28T12:34:42;102619.88;;;6.72
60731;BMP280;46580;52.114;11.674;2023-02-28T12:37:46;102613.75;;;7.02
60731;BMP280;46580;52.114;11.674;2023-02-28T12:40:20;102607.00;;;7.24
60731;BMP280;46580;52.114;11.674;2023-02-28T12:42:53;102604.66;;;7.42
60731;BMP280;46580;52.114;11.674;2023-02-28T12:45:28;102596.03;;;7.45
60731;BMP280;46580;52.114;11.674;2023-02-28T12:48:00;102596.63;;;7.75
60731;BMP280;46580;52.114;11.674;2023-02-28T12:50:27;102591.75;;;7.92
60731;BMP280;46580;52.114;11.674;2023-02-28T12:56:03;102581.25;;;8.21
60731;BMP280;46580;52.114;11.674;2023-02-28T12:58:40;102581.13;;;8.24
60731;BMP280;46580;52.114;11.674;2023-02-28T13:09:23;102569.97;;;7.80
60731;BMP280;46580;52.114;11.674;2023-02-28T13:11:53;102572.41;;;7.61
60731;BMP280;46580;52.114;11.674;2023-02-28T13:14:37;102573.47;;;7.32
60731;BMP280;46580;52.114;11.674;2023-02-28T13:17:10;102571.69;;;7.34
60731;BMP280;46580;52.114;11.674;2023-02-28T13:19:41;102578.03;;;7.23
60731;BMP280;46580;52.114;11.674;2023-02-28T13:22:42;102574.66;;;7.68
60731;BMP280;46580;52.114;11.674;2023-02-28T13:27:47;102569.66;;;8.12
60731;BMP280;46580;52.114;11.674;2023-02-28T13:33:46;102573.34;;;7.59
60731;BMP280;46580;52.114;11.674;2023-02-28T13:36:27;102565.94;;;7.96
60731;BMP280;46580;52.114;11.674;2023-02-28T13:38:57;102568.94;;;7.84
60731;BMP280;46580;52.114;11.674;2023-02-28T13:44:21;102560.69;;;7.30
60731;BMP280;46580;52.114;11.674;2023-02-28T13:51:52;102556.78;;;7.44
60731;BMP280;46580;52.114;11.674;2023-02-28T13:54:40;102562.47;;;7.52
60731;BMP280;46580;52.114;11.674;2023-02-28T14:00:28;102558.59;;;7.17
60731;BMP280;46580;52.114;11.674;2023-02-28T14:09:02;102557.25;;;7.31
60731;BMP280;46580;52.114;11.674;2023-02-28T14:11:35;102544.31;;;7.10
60731;BMP280;46580;52.114;11.674;2023-02-28T14:14:02;102550.56;;;7.27
60731;BMP280;46580;52.114;11.674;2023-02-28T14:16:46;102541.47;;;7.19
60731;BMP280;46580;52.114;11.674;2023-02-28T14:19:21;102537.69;;;7.29
60731;BMP280;46580;52.114;11.674;2023-02-28T14:33:26;102527.66;;;7.23
60731;BMP280;46580;52.114;11.674;2023-02-28T14:36:14;102525.56;;;7.34
60731;BMP280;46580;52.114;11.674;2023-02-28T14:38:48;102511.69;;;6.93
60731;BMP280;46580;52.114;11.674;2023-02-28T14:43:56;102526.13;;;6.68
60731;BMP280;46580;52.114;11.674;2023-02-28T14:46:23;102515.84;;;6.95
60731;BMP280;46580;52.114;11.674;2023-02-28T14:48:51;102520.03;;;6.98
60731;BMP280;46580;52.114;11.674;2023-02-28T14:51:22;102514.69;;;7.04
60731;BMP280;46580;52.114;11.674;2023-02-28T14:53:52;102516.47;;;6.78
60731;BMP280;46580;52.114;11.674;2023-02-28T14:56:24;102517.59;;;6.69
60731;BMP280;46580;52.114;11.674;2023-02-28T14:58:53;102521.53;;;6.79
60731;BMP280;46580;52.114;11.674;2023-02-28T15:01:20;102514.56;;;6.83
60731;BMP280;46580;52.114;11.674;2023-02-28T15:03:47;102523.31;;;6.52
60731;BMP280;46580;52.114;11.674;2023-02-28T15:06:17;102517.38;;;6.75
60731;BMP280;46580;52.114;11.674;2023-02-28T15:08:44;102516.06;;;6.64
60731;BMP280;46580;52.114;11.674;2023-02-28T15:11:14;102517.16;;;6.81
60731;BMP280;46580;52.114;11.674;2023-02-28T15:13:48;102521.28;;;6.87
60731;BMP280;46580;52.114;11.674;2023-02-28T15:16:25;102510.00;;;6.92
60731;BMP280;46580;52.114;11.674;2023-02-28T15:18:55;102517.16;;;6.81
60731;BMP280;46580;52.114;11.674;2023-02-28T15:21:32;102516.28;;;6.82
60731;BMP280;46580;52.114;11.674;2023-02-28T15:26:32;102515.19;;;6.89
60731;BMP280;46580;52.114;11.674;2023-02-28T15:29:01;102523.53;;;6.70
60731;BMP280;46580;52.114;11.674;2023-02-28T15:31:35;102511.53;;;6.72
60731;BMP280;46580;52.114;11.674;2023-02-28T15:34:05;102509.03;;;6.70
60731;BMP280;46580;52.114;11.674;2023-02-28T15:36:33;102520.94;;;6.46
60731;BMP280;46580;52.114;11.674;2023-02-28T15:39:03;102525.81;;;6.53
60731;BMP280;46580;52.114;11.674;2023-02-28T15:41:43;102520.69;;;6.53
60731;BMP280;46580;52.114;11.674;2023-02-28T15:47:03;102511.28;;;6.54
60731;BMP280;46580;52.114;11.674;2023-02-28T15:49:39;102518.06;;;6.55
60731;BMP280;46580;52.114;11.674;2023-02-28T15:52:05;102516.78;;;6.42
60731;BMP280;46580;52.114;11.674;2023-02-28T15:54:33;102515.75;;;6.48
60731;BMP280;46580;52.114;11.674;2023-02-28T15:57:07;102516.78;;;6.42
60731;BMP280;46580;52.114;11.674;2023-02-28T15:59:35;102509.16;;;6.41
60731;BMP280;46580;52.114;11.674;2023-02-28T16:02:18;102512.13;;;6.28
60731;BMP280;46580;52.114;11.674;2023-02-28T16:04:59;102510.88;;;6.13